createdAt,value
2022-09-29T00:00:42.125Z,95787.22
2022-09-29T00:11:07.830Z,95789.00
2022-09-29T00:21:14.450Z,95796.66
2022-09-29T00:31:16.797Z,95799.22
2022-09-29T00:41:28.876Z,95813.06
2022-09-29T00:51:33.860Z,95802.56
2022-09-29T01:01:36.392Z,95808.53
2022-09-29T01:11:38.609Z,95805.06
2022-09-29T01:21:49.873Z,95811.28
2022-09-29T01:32:00.553Z,95826.09
2022-09-29T01:42:08.125Z,95825.59
2022-09-29T01:52:15.064Z,95823.16
2022-09-29T02:02:24.695Z,95818.34
2022-09-29T02:12:30.674Z,95817.50
2022-09-29T02:22:34.858Z,95818.59
2022-09-29T02:32:36.972Z,95843.28
2022-09-29T02:42:54.128Z,95841.66
2022-09-29T02:53:18.120Z,95848.38
2022-09-29T03:03:20.290Z,95852.63
2022-09-29T03:13:22.471Z,95860.69
2022-09-29T03:23:24.667Z,95855.84
2022-09-29T03:33:26.779Z,95857.75
2022-09-29T03:43:28.858Z,95864.13
2022-09-29T03:53:31.272Z,95863.88
2022-09-29T04:03:33.489Z,95866.50
2022-09-29T04:13:35.757Z,95880.94
2022-09-29T04:23:38.637Z,95876.38
2022-09-29T04:33:41.719Z,95890.59
2022-09-29T04:43:44.120Z,95897.31
2022-09-29T04:53:46.201Z,95894.56
2022-09-29T05:03:48.281Z,95895.88
2022-09-29T05:13:51.112Z,95899.28
2022-09-29T05:23:53.346Z,95903.31
2022-09-29T05:33:56.795Z,95910.03
2022-09-29T05:44:01.376Z,95913.56
2022-09-29T05:54:03.602Z,95914.19
2022-09-29T06:04:05.760Z,95915.56
2022-09-29T06:14:08.290Z,95929.63
2022-09-29T06:24:10.669Z,95931.09
2022-09-29T06:34:12.913Z,95942.47
2022-09-29T06:44:15.879Z,95952.22
2022-09-29T06:54:20.858Z,95955.44
2022-09-29T07:04:23.823Z,95941.88
2022-09-29T07:14:26.195Z,95948.53
2022-09-29T07:24:28.391Z,95947.41
2022-09-29T07:34:30.518Z,95944.28
2022-09-29T07:44:32.900Z,95949.97
2022-09-29T07:54:35.373Z,95961.09
2022-09-29T08:04:37.489Z,95956.16
2022-09-29T08:14:43.914Z,95959.22
2022-09-29T08:24:46.740Z,95973.72
2022-09-29T08:34:48.900Z,95965.59
2022-09-29T08:45:13.347Z,95964.28
2022-09-29T08:55:21.581Z,95973.00
2022-09-29T09:05:51.350Z,95973.41
2022-09-29T09:16:05.433Z,95981.38
2022-09-29T09:26:10.233Z,95978.97
2022-09-29T09:36:42.933Z,95982.59
2022-09-29T09:46:58.943Z,95997.44
2022-09-29T09:57:16.136Z,96008.03
2022-09-29T10:07:20.440Z,96012.56
2022-09-29T10:17:28.012Z,96014.28
2022-09-29T10:27:30.888Z,96022.47
2022-09-29T10:37:46.496Z,96022.63
2022-09-29T10:48:09.134Z,96027.75
2022-09-29T10:58:44.605Z,96033.00
2022-09-29T11:09:05.643Z,96047.25
2022-09-29T11:19:11.346Z,96052.25
2022-09-29T11:29:55.456Z,96059.56
2022-09-29T11:40:12.161Z,96041.84
2022-09-29T11:50:33.605Z,96036.94
2022-09-29T12:01:23.849Z,96034.72
2022-09-29T12:22:01.797Z,96046.41
2022-09-29T12:32:21.497Z,96049.03
2022-09-29T12:42:26.935Z,96046.25
2022-09-29T12:52:44.349Z,96052.56
2022-09-29T13:03:30.294Z,96058.97
2022-09-29T13:14:04.628Z,96061.44
2022-09-29T13:24:17.661Z,96064.28
2022-09-29T13:34:31.142Z,96064.56
2022-09-29T13:44:33.299Z,96072.03
2022-09-29T13:54:42.459Z,96072.50
2022-09-29T14:04:49.249Z,96088.13
2022-09-29T14:14:57.173Z,96094.00
2022-09-29T14:25:19.531Z,96095.53
2022-09-29T14:35:29.658Z,96097.81
2022-09-29T14:46:06.976Z,96102.44
2022-09-29T14:56:52.024Z,96110.56
2022-09-29T15:06:54.339Z,96112.78
2022-09-29T15:17:03.429Z,96111.09
2022-09-29T15:27:09.989Z,96116.81
2022-09-29T15:37:15.105Z,96126.66
2022-09-29T15:47:23.625Z,96147.28
2022-09-29T15:57:48.934Z,96159.28
2022-09-29T16:08:03.492Z,96178.88
2022-09-29T16:18:16.291Z,96214.25
2022-09-29T16:28:27.040Z,96221.28
2022-09-29T16:38:37.284Z,96241.19
2022-09-29T16:48:44.630Z,96238.63
2022-09-29T16:59:03.537Z,96248.69
2022-09-29T17:09:06.600Z,96267.16
2022-09-29T17:19:11.191Z,96278.66
2022-09-29T17:29:13.395Z,96293.97
2022-09-29T17:39:16.428Z,96293.63
2022-09-29T17:49:18.682Z,96293.66
2022-09-29T17:59:21.493Z,96290.50
2022-09-29T18:09:23.639Z,96289.44
2022-09-29T18:19:25.963Z,96287.31
2022-09-29T18:29:31.567Z,96291.19
2022-09-29T18:39:33.798Z,96310.25
2022-09-29T18:49:35.885Z,96310.44
2022-09-29T18:59:38.117Z,96308.00
2022-09-29T19:09:40.681Z,96331.66
2022-09-29T19:19:42.812Z,96349.66
2022-09-29T19:29:45.044Z,96358.44
2022-09-29T19:39:47.564Z,96374.72
2022-09-29T19:49:49.821Z,96370.13
2022-09-29T19:59:52.188Z,96363.69
2022-09-29T20:09:54.930Z,96354.00
2022-09-29T20:19:57.144Z,96379.91
2022-09-29T20:29:59.268Z,96401.56
2022-09-29T20:40:11.343Z,96421.28
2022-09-29T20:50:14.681Z,96427.50
2022-09-29T21:00:16.867Z,96443.16
2022-09-29T21:10:19.036Z,96435.56
2022-09-29T21:20:21.154Z,96459.81
2022-09-29T21:30:23.224Z,96466.75
2022-09-29T21:40:25.367Z,96474.25
2022-09-29T21:50:27.467Z,96469.66
2022-09-29T22:00:29.589Z,96474.25
2022-09-29T22:10:31.757Z,96480.44
2022-09-29T22:20:36.345Z,96479.00
2022-09-29T22:30:39.319Z,96489.78
2022-09-29T22:40:41.435Z,96491.31
2022-09-29T22:50:45.867Z,96496.09
2022-09-29T23:00:48.038Z,96509.75
2022-09-29T23:10:50.203Z,96512.66
2022-09-29T23:20:58.872Z,96516.88
2022-09-29T23:31:05.469Z,96502.53
2022-09-29T23:41:08.200Z,96515.31
2022-09-29T23:51:10.341Z,96525.19
